KCON/CON METAR and TAF weather

Enter ICAO airport designator
Station Type Date Time Source
KCON METAR 2020/01/21 14:51 UTC NOAA

KCON 211451Z AUTO 34004KT 10SM CLR M09/M18 A3041 RMK AO2 SLP306 T10941178 51012


Station Type Date Time Source
KCON Decoded METAR 2020/01/21 14:51 UTC NOAA

Concord, Concord Municipal Airport, NH, United States (KCON) 43-11-43N 071-30-04W 103M
Jan 21, 2020 - 09:51 AM EST / 2020.01.21 1451 UTC
Wind: from the NNW (340 degrees) at 5 MPH (4 KT):0
Visibility: 10 mile(s):0
Sky conditions: clear
Temperature: 15.1 F (-9.4 C)
Windchill: 6 F (-14 C):1
Dew Point: -0.0 F (-17.8 C)
Relative Humidity: 50%
Pressure (altimeter): 30.41 in. Hg (1029 hPa)
Pressure tendency: 0.04 inches (1.2 hPa) higher than three hours ago
ob: KCON 211451Z AUTO 34004KT 10SM CLR M09/M18 A3041 RMK AO2 SLP306 T10941178 51012
cycle: 15

Station Type Date Time Source
KCON TAF 2020/01/21 12:33 UTC NOAA

TAF KCON 211130Z 2112/2212 31005KT P6SM FEW250
FM220300 VRB03KT P6SM BKN100

Example: see airport list